createdAt,value
2023-05-24T00:00:22.156Z,99729.06
2023-05-24T00:01:27.131Z,99719.72
2023-05-24T00:02:29.366Z,99718.41
2023-05-24T00:03:35.062Z,99722.47
2023-05-24T00:04:37.571Z,99720.22
2023-05-24T00:05:41.020Z,99713.75
2023-05-24T00:06:44.785Z,99723.38
2023-05-24T00:07:46.967Z,99723.56
2023-05-24T00:08:49.148Z,99720.31
2023-05-24T00:09:51.394Z,99708.25
2023-05-24T00:10:53.556Z,99712.59
2023-05-24T00:11:55.986Z,99702.47
2023-05-24T00:12:58.319Z,99700.22
2023-05-24T00:14:00.769Z,99706.47
2023-05-24T00:15:03.347Z,99710.16
2023-05-24T00:16:06.586Z,99698.03
2023-05-24T00:17:08.969Z,99701.59
2023-05-24T00:18:11.285Z,99697.84
2023-05-24T00:19:18.190Z,99688.53
2023-05-24T00:20:20.657Z,99695.66
2023-05-24T00:21:23.074Z,99695.72
2023-05-24T00:22:25.290Z,99690.66
2023-05-24T00:23:27.537Z,99679.41
2023-05-24T00:24:29.847Z,99692.16
2023-05-24T00:25:32.102Z,99680.63
2023-05-24T00:26:34.376Z,99686.69
2023-05-24T00:27:37.490Z,99678.47
2023-05-24T00:28:39.763Z,99680.13
2023-05-24T00:29:41.997Z,99681.06
2023-05-24T00:30:44.653Z,99681.41
2023-05-24T00:31:46.972Z,99687.31
2023-05-24T00:32:49.283Z,99685.56
2023-05-24T00:33:51.565Z,99690.97
2023-05-24T00:34:54.461Z,99676.97
2023-05-24T00:35:56.915Z,99689.53
2023-05-24T00:36:59.215Z,99685.91
2023-05-24T00:38:01.994Z,99688.75
2023-05-24T00:39:04.386Z,99688.00
2023-05-24T00:40:07.327Z,99685.94
2023-05-24T00:41:11.298Z,99692.22
2023-05-24T00:42:13.580Z,99693.63
2023-05-24T00:43:16.063Z,99689.88
2023-05-24T00:44:18.304Z,99696.56
2023-05-24T00:45:20.543Z,99701.34
2023-05-24T00:46:29.017Z,99698.25
2023-05-24T00:47:31.825Z,99697.59
2023-05-24T00:48:34.081Z,99696.41
2023-05-24T00:49:36.622Z,99693.81
2023-05-24T00:50:40.374Z,99696.59
2023-05-24T00:51:43.074Z,99690.25
2023-05-24T00:52:47.766Z,99691.00
2023-05-24T00:53:50.500Z,99690.50
2023-05-24T00:54:52.818Z,99692.38
2023-05-24T00:55:55.188Z,99687.16
2023-05-24T00:56:57.804Z,99695.63
2023-05-24T00:58:02.186Z,99696.22
2023-05-24T00:59:04.435Z,99691.69
2023-05-24T01:00:08.136Z,99681.09
2023-05-24T01:01:10.725Z,99681.88
2023-05-24T01:02:13.182Z,99687.06
2023-05-24T01:03:16.229Z,99697.06
2023-05-24T01:04:20.519Z,99697.41
2023-05-24T01:05:23.606Z,99685.53
2023-05-24T01:06:27.186Z,99692.66
2023-05-24T01:08:02.758Z,99691.22
2023-05-24T01:09:10.084Z,99694.84
2023-05-24T01:10:25.268Z,99698.97
2023-05-24T01:11:36.342Z,99696.22
2023-05-24T01:12:59.377Z,99697.28
2023-05-24T01:14:18.538Z,99702.25
2023-05-24T01:15:37.407Z,99705.59
2023-05-24T01:17:04.991Z,99696.19
2023-05-24T01:18:16.944Z,99701.91
2023-05-24T01:19:48.812Z,99704.59
2023-05-24T01:21:02.573Z,99703.81
2023-05-24T01:22:33.905Z,99708.75
2023-05-24T01:24:04.453Z,99698.09
2023-05-24T01:25:09.351Z,99700.22
2023-05-24T01:26:18.959Z,99699.66
2023-05-24T01:27:23.804Z,99709.69
2023-05-24T01:28:27.352Z,99705.03
2023-05-24T01:29:31.324Z,99706.56
2023-05-24T01:30:34.762Z,99703.75
2023-05-24T01:31:37.436Z,99706.94
2023-05-24T01:32:40.282Z,99692.81
2023-05-24T01:33:43.994Z,99708.53
2023-05-24T01:34:46.382Z,99705.78
2023-05-24T01:35:48.646Z,99707.44
2023-05-24T01:36:50.927Z,99703.66
2023-05-24T01:37:53.268Z,99708.41
2023-05-24T01:38:55.732Z,99711.81
2023-05-24T01:39:58.285Z,99705.03
2023-05-24T01:41:09.763Z,99700.81
2023-05-24T01:42:28.980Z,99711.22
2023-05-24T01:43:37.797Z,99704.91
2023-05-24T01:45:01.447Z,99707.72
2023-05-24T01:46:24.244Z,99710.59
2023-05-24T01:47:53.125Z,99707.00
2023-05-24T01:49:23.284Z,99709.31
2023-05-24T01:50:34.503Z,99705.09
2023-05-24T01:51:49.891Z,99698.56
2023-05-24T01:52:53.465Z,99709.56
2023-05-24T01:53:58.926Z,99709.50
2023-05-24T01:55:02.917Z,99707.81
2023-05-24T01:56:06.436Z,99709.50
2023-05-24T01:57:11.079Z,99714.28
2023-05-24T01:58:13.926Z,99706.56
2023-05-24T01:59:16.830Z,99717.69
2023-05-24T02:02:12.278Z,99721.63
2023-05-24T02:03:16.906Z,99722.25
2023-05-24T02:04:19.302Z,99721.09
2023-05-24T02:05:21.792Z,99716.72
2023-05-24T02:06:24.092Z,99723.94
2023-05-24T02:07:26.673Z,99721.31
2023-05-24T02:08:28.887Z,99726.56
2023-05-24T02:09:31.145Z,99727.63
2023-05-24T02:10:33.347Z,99733.44
2023-05-24T02:11:35.693Z,99726.16
2023-05-24T02:12:38.413Z,99722.78
2023-05-24T02:13:42.040Z,99732.41
2023-05-24T02:14:44.295Z,99722.75
2023-05-24T02:15:47.694Z,99725.06
2023-05-24T02:16:50.926Z,99729.63
2023-05-24T02:17:54.695Z,99718.97
2023-05-24T02:18:57.866Z,99725.94
2023-05-24T02:20:00.420Z,99723.47
2023-05-24T02:21:03.489Z,99731.50
2023-05-24T02:22:07.293Z,99723.69
2023-05-24T02:23:09.732Z,99729.72
2023-05-24T02:24:12.840Z,99724.53
2023-05-24T02:25:15.967Z,99725.53
2023-05-24T02:26:20.909Z,99725.34
2023-05-24T02:27:23.104Z,99725.06
2023-05-24T02:28:25.378Z,99726.88
2023-05-24T02:29:27.645Z,99726.78
2023-05-24T02:30:29.953Z,99728.56
2023-05-24T02:31:32.313Z,99731.25
2023-05-24T02:32:34.880Z,99728.50
2023-05-24T02:33:37.245Z,99726.00
2023-05-24T02:34:39.636Z,99733.03
2023-05-24T02:35:41.856Z,99732.03
2023-05-24T02:36:45.715Z,99730.09
2023-05-24T02:37:48.059Z,99733.63
2023-05-24T02:38:50.994Z,99727.63
2023-05-24T02:39:53.295Z,99727.69
2023-05-24T02:40:55.598Z,99728.84
2023-05-24T02:41:58.127Z,99725.72
2023-05-24T02:43:00.423Z,99740.84
2023-05-24T02:44:02.805Z,99728.63
2023-05-24T02:45:05.733Z,99734.94
2023-05-24T02:46:08.105Z,99738.56
2023-05-24T02:47:10.548Z,99728.84
2023-05-24T02:48:12.750Z,99730.78
2023-05-24T02:49:15.309Z,99734.25
2023-05-24T02:50:17.804Z,99726.31
2023-05-24T02:51:20.110Z,99729.88
2023-05-24T02:52:23.328Z,99729.16
2023-05-24T02:53:25.595Z,99726.78
2023-05-24T02:54:28.017Z,99741.59
2023-05-24T02:55:30.447Z,99723.00
2023-05-24T02:56:33.039Z,99730.19
2023-05-24T02:57:35.450Z,99731.28
2023-05-24T02:58:40.381Z,99722.72
2023-05-24T02:59:43.450Z,99730.84
2023-05-24T03:00:45.822Z,99728.47
2023-05-24T03:01:48.112Z,99730.19
2023-05-24T03:02:53.316Z,99727.25
2023-05-24T03:03:56.053Z,99729.88
2023-05-24T03:04:58.308Z,99724.53
2023-05-24T03:06:00.602Z,99722.72
2023-05-24T03:07:03.254Z,99726.28
2023-05-24T03:08:06.353Z,99714.28
2023-05-24T03:09:09.167Z,99724.94
2023-05-24T03:10:12.624Z,99723.28
2023-05-24T03:11:19.124Z,99717.59
2023-05-24T03:12:21.402Z,99719.34
2023-05-24T03:13:24.389Z,99722.13
2023-05-24T03:14:26.727Z,99717.91
2023-05-24T03:15:28.975Z,99717.84
2023-05-24T03:16:32.012Z,99715.94
2023-05-24T03:17:34.380Z,99715.19
2023-05-24T03:18:36.566Z,99709.13
2023-05-24T03:19:38.968Z,99712.25
2023-05-24T03:20:41.600Z,99716.84
2023-05-24T03:21:44.809Z,99707.47
2023-05-24T03:22:47.101Z,99712.63
2023-05-24T03:23:50.040Z,99714.75
2023-05-24T03:24:53.516Z,99708.06
2023-05-24T03:25:55.913Z,99711.03
2023-05-24T03:26:58.236Z,99710.28
2023-05-24T03:28:02.449Z,99707.72
2023-05-24T03:29:04.758Z,99712.56
2023-05-24T03:30:12.422Z,99714.81
2023-05-24T03:31:26.398Z,99712.63
2023-05-24T03:32:28.970Z,99712.38
2023-05-24T03:33:32.121Z,99710.56
2023-05-24T03:34:34.445Z,99716.03
2023-05-24T03:35:36.675Z,99710.56
2023-05-24T03:36:39.230Z,99715.16
2023-05-24T03:37:41.685Z,99713.31
2023-05-24T03:38:44.284Z,99711.50
2023-05-24T03:39:47.268Z,99699.81
2023-05-24T03:41:08.099Z,99704.91
2023-05-24T03:42:10.690Z,99706.31
2023-05-24T03:43:12.949Z,99699.31
2023-05-24T03:44:22.630Z,99709.75
2023-05-24T03:45:37.614Z,99705.34
2023-05-24T03:46:42.174Z,99704.47
2023-05-24T03:47:44.871Z,99704.59
2023-05-24T03:48:48.110Z,99709.00
2023-05-24T03:49:51.386Z,99705.34
2023-05-24T03:50:53.802Z,99706.00
2023-05-24T03:51:55.987Z,99705.00
2023-05-24T03:52:58.319Z,99708.66
2023-05-24T03:54:00.736Z,99707.69
2023-05-24T03:55:02.997Z,99709.44
2023-05-24T03:56:05.459Z,99711.03
2023-05-24T03:57:07.879Z,99720.38
2023-05-24T03:58:12.572Z,99715.94
2023-05-24T03:59:14.880Z,99717.25
2023-05-24T04:00:17.324Z,99720.16
2023-05-24T04:01:33.375Z,99714.56
2023-05-24T04:02:38.267Z,99714.91
2023-05-24T04:03:41.519Z,99712.41
2023-05-24T04:04:43.886Z,99718.25
2023-05-24T04:05:46.394Z,99720.94
2023-05-24T04:06:49.701Z,99713.00
2023-05-24T04:07:52.042Z,99719.59
2023-05-24T04:08:57.298Z,99721.56
2023-05-24T04:09:59.784Z,99718.47
2023-05-24T04:11:02.332Z,99721.88
2023-05-24T04:12:04.826Z,99722.13
2023-05-24T04:13:08.603Z,99725.38
2023-05-24T04:14:12.138Z,99731.03
2023-05-24T04:15:15.224Z,99721.03
2023-05-24T04:16:17.458Z,99723.56
2023-05-24T04:17:19.785Z,99728.66
2023-05-24T04:18:22.256Z,99726.41
2023-05-24T04:19:24.673Z,99724.75
2023-05-24T04:20:28.022Z,99716.41
2023-05-24T04:21:30.710Z,99725.47
2023-05-24T04:22:32.996Z,99727.16
2023-05-24T04:23:35.490Z,99732.31
2023-05-24T04:24:38.031Z,99721.72
2023-05-24T04:25:40.347Z,99726.13
2023-05-24T04:26:44.820Z,99724.41
2023-05-24T04:27:50.214Z,99719.47
2023-05-24T04:28:52.744Z,99717.34
2023-05-24T04:29:55.034Z,99720.03
2023-05-24T04:30:57.692Z,99720.88
2023-05-24T04:32:01.908Z,99725.19
2023-05-24T04:33:04.213Z,99727.78
2023-05-24T04:34:07.665Z,99725.38
2023-05-24T04:35:11.179Z,99728.50
2023-05-24T04:36:13.478Z,99725.81
2023-05-24T04:37:17.207Z,99726.09
2023-05-24T04:38:22.071Z,99724.22
2023-05-24T04:39:24.345Z,99727.63
2023-05-24T04:40:26.604Z,99728.09
2023-05-24T04:41:31.830Z,99730.59
2023-05-24T04:42:34.866Z,99723.69
2023-05-24T04:43:37.138Z,99718.78
2023-05-24T04:44:42.705Z,99736.03
2023-05-24T04:45:44.956Z,99724.41
2023-05-24T04:46:47.665Z,99726.31
2023-05-24T04:47:49.929Z,99732.25
2023-05-24T04:48:52.203Z,99732.31
2023-05-24T04:49:54.495Z,99734.88
2023-05-24T04:50:58.347Z,99733.34
2023-05-24T04:52:00.874Z,99733.47
2023-05-24T04:53:03.965Z,99736.91
2023-05-24T04:54:09.001Z,99730.88
2023-05-24T04:55:11.627Z,99738.66
2023-05-24T04:56:17.522Z,99733.59
2023-05-24T04:57:19.779Z,99741.13
2023-05-24T04:58:22.092Z,99739.66
2023-05-24T04:59:24.727Z,99736.84
2023-05-24T05:00:26.981Z,99732.94
2023-05-24T05:01:29.401Z,99740.72
2023-05-24T05:02:32.967Z,99736.91
2023-05-24T05:03:35.551Z,99736.53
2023-05-24T05:04:37.851Z,99732.16
2023-05-24T05:05:40.178Z,99738.72
2023-05-24T05:06:45.179Z,99738.63
2023-05-24T05:07:47.377Z,99742.56
2023-05-24T05:08:49.634Z,99733.25
2023-05-24T05:09:52.124Z,99737.06
2023-05-24T05:10:54.371Z,99731.63
2023-05-24T05:11:56.607Z,99741.78
2023-05-24T05:12:58.921Z,99740.81
2023-05-24T05:14:01.247Z,99738.13
2023-05-24T05:15:03.629Z,99741.25
2023-05-24T05:16:06.640Z,99743.78
2023-05-24T05:17:08.914Z,99740.66
2023-05-24T05:18:11.202Z,99744.88
2023-05-24T05:19:13.477Z,99746.25
2023-05-24T05:20:15.823Z,99748.28
2023-05-24T05:21:18.455Z,99742.13
2023-05-24T05:22:20.788Z,99748.88
2023-05-24T05:23:23.000Z,99744.50
2023-05-24T05:24:25.260Z,99743.66
2023-05-24T05:25:27.677Z,99751.78
2023-05-24T05:26:30.612Z,99748.28
2023-05-24T05:27:32.852Z,99746.53
2023-05-24T05:28:35.179Z,99742.69
2023-05-24T05:29:37.456Z,99749.41
2023-05-24T05:30:39.833Z,99744.69
2023-05-24T05:31:42.244Z,99742.47
2023-05-24T05:32:44.556Z,99751.97
2023-05-24T05:33:46.864Z,99746.59
2023-05-24T05:34:49.081Z,99741.25
2023-05-24T05:35:53.559Z,99746.09
2023-05-24T05:36:57.388Z,99746.84
2023-05-24T05:37:59.689Z,99741.59
2023-05-24T05:39:01.939Z,99742.09
2023-05-24T05:40:04.696Z,99735.66
2023-05-24T05:41:07.303Z,99739.69
2023-05-24T05:42:09.606Z,99736.88
2023-05-24T05:43:11.835Z,99740.81
2023-05-24T05:44:14.244Z,99738.00
2023-05-24T05:45:17.092Z,99738.78
2023-05-24T05:46:21.363Z,99744.41
2023-05-24T05:47:23.688Z,99733.69
2023-05-24T05:48:26.068Z,99738.75
2023-05-24T05:49:28.369Z,99740.09
2023-05-24T05:50:30.624Z,99735.72
2023-05-24T05:51:32.881Z,99730.16
2023-05-24T05:52:35.277Z,99724.94
2023-05-24T05:53:37.483Z,99734.41
2023-05-24T05:54:39.751Z,99735.59
2023-05-24T05:55:42.058Z,99738.81
2023-05-24T05:56:47.807Z,99743.13
2023-05-24T05:57:50.160Z,99735.06
2023-05-24T05:58:52.434Z,99731.31
2023-05-24T05:59:54.695Z,99735.13
2023-05-24T06:00:56.984Z,99731.44
2023-05-24T06:01:59.206Z,99734.47
2023-05-24T06:03:01.557Z,99734.16
2023-05-24T06:04:03.999Z,99732.59
2023-05-24T06:05:06.489Z,99738.81
2023-05-24T06:06:08.772Z,99733.53
2023-05-24T06:07:10.983Z,99738.38
2023-05-24T06:08:13.203Z,99745.34
2023-05-24T06:09:16.579Z,99736.44
2023-05-24T06:10:18.923Z,99733.97
2023-05-24T06:11:21.246Z,99741.56
2023-05-24T06:12:23.554Z,99748.00
2023-05-24T06:13:28.115Z,99741.19
2023-05-24T06:14:30.798Z,99743.69
2023-05-24T06:15:33.354Z,99746.38
2023-05-24T06:16:36.644Z,99754.28
2023-05-24T06:17:39.072Z,99741.91
2023-05-24T06:18:47.398Z,99742.91
2023-05-24T06:19:55.894Z,99745.41
2023-05-24T06:20:58.309Z,99746.03
2023-05-24T06:22:01.782Z,99746.53
2023-05-24T06:23:04.010Z,99747.78
2023-05-24T06:24:09.804Z,99743.94
2023-05-24T06:25:14.765Z,99740.03
2023-05-24T06:26:17.047Z,99749.81
2023-05-24T06:27:19.706Z,99750.59
2023-05-24T06:28:22.701Z,99744.50
2023-05-24T06:29:25.289Z,99744.50
2023-05-24T06:30:27.712Z,99747.28
2023-05-24T06:31:30.118Z,99745.69
2023-05-24T06:32:32.490Z,99740.25
2023-05-24T06:33:37.675Z,99754.03
2023-05-24T06:34:42.144Z,99759.50
2023-05-24T06:35:44.542Z,99760.06
2023-05-24T06:36:48.357Z,99763.34
2023-05-24T06:37:50.641Z,99768.84
2023-05-24T06:38:52.843Z,99765.72
2023-05-24T06:39:55.028Z,99770.22
2023-05-24T06:40:57.226Z,99774.50
2023-05-24T06:41:59.534Z,99765.38
2023-05-24T06:43:04.749Z,99767.44
2023-05-24T06:44:07.371Z,99776.69
2023-05-24T06:45:09.929Z,99763.72
2023-05-24T06:46:12.727Z,99774.53
2023-05-24T06:47:15.073Z,99775.44
2023-05-24T06:48:17.467Z,99777.38
2023-05-24T06:49:19.797Z,99779.22
2023-05-24T06:50:22.463Z,99767.16
2023-05-24T06:51:24.711Z,99777.34
2023-05-24T06:52:26.982Z,99774.78
2023-05-24T06:53:29.325Z,99778.53
2023-05-24T06:54:32.025Z,99778.53
2023-05-24T06:55:34.304Z,99775.50
2023-05-24T06:56:36.564Z,99769.63
2023-05-24T06:57:38.925Z,99774.53
2023-05-24T06:58:41.968Z,99771.91
2023-05-24T06:59:44.205Z,99770.13
2023-05-24T07:00:46.769Z,99768.38
2023-05-24T07:01:51.762Z,99782.03
2023-05-24T07:02:54.456Z,99782.34
2023-05-24T07:03:56.897Z,99782.47
2023-05-24T07:04:59.273Z,99776.00
2023-05-24T07:06:01.836Z,99780.63
2023-05-24T07:07:04.281Z,99777.75
2023-05-24T07:08:07.123Z,99778.84
2023-05-24T07:09:10.404Z,99777.25
2023-05-24T07:10:13.409Z,99787.59
2023-05-24T07:11:16.116Z,99786.25
2023-05-24T07:12:21.491Z,99795.47
2023-05-24T07:13:23.905Z,99788.75
2023-05-24T07:14:27.467Z,99794.50
2023-05-24T07:15:30.343Z,99798.78
2023-05-24T07:16:32.810Z,99800.75
2023-05-24T07:17:35.373Z,99793.56
2023-05-24T07:18:37.881Z,99800.50
2023-05-24T07:19:40.666Z,99794.19
2023-05-24T07:20:43.231Z,99799.75
2023-05-24T07:21:45.971Z,99798.56
2023-05-24T07:22:48.280Z,99796.50
2023-05-24T07:23:51.800Z,99803.59
2023-05-24T07:24:54.533Z,99803.91
2023-05-24T07:25:57.125Z,99805.94
2023-05-24T07:26:59.637Z,99810.63
2023-05-24T07:28:01.928Z,99809.56
2023-05-24T07:29:04.273Z,99810.88
2023-05-24T07:30:16.385Z,99809.09
2023-05-24T07:31:27.355Z,99814.41
2023-05-24T07:32:29.817Z,99816.53
2023-05-24T07:33:32.217Z,99812.88
2023-05-24T07:34:36.661Z,99813.50
2023-05-24T07:35:39.531Z,99811.16
2023-05-24T07:36:42.155Z,99808.16
2023-05-24T07:37:44.385Z,99807.78
2023-05-24T07:38:46.984Z,99810.91
2023-05-24T07:39:49.699Z,99813.53
2023-05-24T07:40:52.834Z,99810.50
2023-05-24T07:41:55.147Z,99816.19
2023-05-24T07:42:57.419Z,99820.03
2023-05-24T07:43:59.619Z,99815.56
2023-05-24T07:45:02.718Z,99813.19
2023-05-24T07:46:05.742Z,99812.75
2023-05-24T07:47:07.986Z,99815.28
2023-05-24T07:48:10.516Z,99819.34
2023-05-24T07:49:12.877Z,99807.91
2023-05-24T07:50:15.152Z,99804.22
2023-05-24T07:51:17.507Z,99810.66
2023-05-24T07:52:20.303Z,99813.53
2023-05-24T07:53:23.281Z,99812.69
2023-05-24T07:54:26.382Z,99816.03
2023-05-24T07:55:28.585Z,99817.63
2023-05-24T07:56:32.139Z,99823.25
2023-05-24T07:57:35.095Z,99819.19
2023-05-24T07:58:37.681Z,99822.41
2023-05-24T07:59:39.860Z,99807.28
2023-05-24T08:00:42.195Z,99811.41
2023-05-24T08:01:44.487Z,99805.25
2023-05-24T08:02:46.917Z,99810.56
2023-05-24T08:03:49.717Z,99814.56
2023-05-24T08:04:52.521Z,99812.47
2023-05-24T08:05:54.810Z,99813.22
2023-05-24T08:06:58.134Z,99811.88
2023-05-24T08:08:00.465Z,99808.78
2023-05-24T08:09:04.330Z,99818.91
2023-05-24T08:10:07.450Z,99808.97
2023-05-24T08:11:09.781Z,99806.31
2023-05-24T08:12:12.713Z,99809.72
2023-05-24T08:13:17.236Z,99816.44
2023-05-24T08:14:19.444Z,99813.97
2023-05-24T08:15:21.708Z,99809.56
2023-05-24T08:16:24.500Z,99808.91
2023-05-24T08:17:27.596Z,99813.22
2023-05-24T08:18:29.960Z,99809.59
2023-05-24T08:19:35.815Z,99812.47
2023-05-24T08:20:38.850Z,99812.47
2023-05-24T08:21:43.566Z,99810.81
2023-05-24T08:22:46.010Z,99807.28
2023-05-24T08:23:48.265Z,99804.09
2023-05-24T08:24:50.795Z,99806.56
2023-05-24T08:25:53.380Z,99795.78
2023-05-24T08:26:55.826Z,99802.53
2023-05-24T08:27:58.169Z,99807.97
2023-05-24T08:29:00.475Z,99807.59
2023-05-24T08:30:04.310Z,99806.06
2023-05-24T08:31:07.345Z,99801.97
2023-05-24T08:32:10.171Z,99801.47
2023-05-24T08:33:12.440Z,99804.34
2023-05-24T08:34:15.484Z,99807.28
2023-05-24T08:35:21.556Z,99811.91
2023-05-24T08:36:24.293Z,99812.41
2023-05-24T08:37:27.255Z,99812.72
2023-05-24T08:38:29.578Z,99821.88
2023-05-24T08:39:31.819Z,99812.94
2023-05-24T08:40:34.094Z,99820.56
2023-05-24T08:41:39.224Z,99817.78
2023-05-24T08:42:42.316Z,99820.22
2023-05-24T08:43:46.986Z,99817.13
2023-05-24T08:44:53.935Z,99820.16
2023-05-24T08:45:59.062Z,99821.97
2023-05-24T08:47:03.503Z,99833.44
2023-05-24T08:48:09.535Z,99824.47
2023-05-24T08:49:13.752Z,99822.47
2023-05-24T08:50:16.468Z,99824.66
2023-05-24T08:51:19.431Z,99825.06
2023-05-24T08:52:22.973Z,99831.69
2023-05-24T08:53:26.422Z,99812.97
2023-05-24T08:54:29.453Z,99809.66
2023-05-24T08:55:33.382Z,99810.09
2023-05-24T08:56:41.883Z,99819.06
2023-05-24T08:57:45.759Z,99817.25
2023-05-24T08:58:48.211Z,99812.47
2023-05-24T08:59:50.750Z,99818.16
2023-05-24T09:00:53.001Z,99812.31
2023-05-24T09:01:57.676Z,99815.94
2023-05-24T09:03:01.696Z,99823.28
2023-05-24T09:04:04.977Z,99815.56
2023-05-24T09:05:11.038Z,99815.50
2023-05-24T09:06:16.294Z,99821.06
2023-05-24T09:07:24.666Z,99819.91
2023-05-24T09:08:28.265Z,99815.78
2023-05-24T09:09:32.389Z,99813.69
2023-05-24T09:10:45.036Z,99815.22
2023-05-24T09:12:02.199Z,99825.47
2023-05-24T09:13:07.048Z,99822.31
2023-05-24T09:14:09.576Z,99816.06
2023-05-24T09:15:12.101Z,99821.72
2023-05-24T09:16:15.926Z,99824.13
2023-05-24T09:17:19.290Z,99811.50
2023-05-24T09:18:21.820Z,99823.53
2023-05-24T09:19:24.251Z,99822.59
2023-05-24T09:20:27.282Z,99820.19
2023-05-24T09:21:29.660Z,99815.97
2023-05-24T09:22:33.606Z,99821.75
2023-05-24T09:23:36.612Z,99820.97
2023-05-24T09:24:43.256Z,99826.22
2023-05-24T09:25:46.770Z,99820.69
2023-05-24T09:26:50.918Z,99823.25
2023-05-24T09:27:53.896Z,99814.09
2023-05-24T09:28:57.681Z,99820.91
2023-05-24T09:29:59.939Z,99822.09
2023-05-24T09:31:07.128Z,99821.00
2023-05-24T09:32:10.333Z,99807.19
2023-05-24T09:33:13.541Z,99815.81
2023-05-24T09:34:16.654Z,99811.81
2023-05-24T09:35:18.894Z,99822.06
2023-05-24T09:36:21.978Z,99811.50
2023-05-24T09:37:31.025Z,99832.50
2023-05-24T09:38:36.126Z,99832.41
2023-05-24T09:39:42.505Z,99829.41
2023-05-24T09:40:45.141Z,99817.91
2023-05-24T09:41:56.891Z,99822.59
2023-05-24T09:43:11.559Z,99813.72
2023-05-24T09:44:14.873Z,99814.03
2023-05-24T09:45:17.546Z,99809.38
2023-05-24T09:46:20.278Z,99806.88
2023-05-24T09:47:29.522Z,99815.47
2023-05-24T09:48:31.962Z,99822.28
2023-05-24T09:49:37.238Z,99829.28
2023-05-24T09:50:40.024Z,99825.84
2023-05-24T09:51:42.713Z,99821.34
2023-05-24T09:52:45.681Z,99832.28
2023-05-24T09:53:49.508Z,99821.78
2023-05-24T09:54:52.066Z,99816.91
2023-05-24T09:55:54.863Z,99803.19
2023-05-24T09:57:02.553Z,99818.38
2023-05-24T09:58:08.433Z,99809.00
2023-05-24T09:59:10.781Z,99809.75
2023-05-24T10:00:16.731Z,99814.69
2023-05-24T10:01:24.645Z,99813.84
2023-05-24T10:02:29.816Z,99806.13
2023-05-24T10:03:37.685Z,99802.38
2023-05-24T10:04:40.416Z,99808.34
2023-05-24T10:05:45.056Z,99800.44
2023-05-24T10:06:48.043Z,99803.81
2023-05-24T10:07:52.184Z,99805.19
2023-05-24T10:08:55.706Z,99799.72
2023-05-24T10:09:57.953Z,99803.34
2023-05-24T10:11:03.104Z,99799.34
2023-05-24T10:12:07.280Z,99797.84
2023-05-24T10:13:09.946Z,99791.53
2023-05-24T10:14:12.627Z,99795.03
2023-05-24T10:15:15.662Z,99785.50
2023-05-24T10:16:18.228Z,99797.34
2023-05-24T10:17:21.035Z,99792.91
2023-05-24T10:18:23.344Z,99799.72
2023-05-24T10:19:25.790Z,99796.81
2023-05-24T10:20:28.469Z,99799.19
2023-05-24T10:21:32.730Z,99807.28
2023-05-24T10:22:40.419Z,99801.28
2023-05-24T10:23:44.977Z,99797.34
2023-05-24T10:24:50.307Z,99795.22
2023-05-24T10:25:59.922Z,99799.22
2023-05-24T10:27:07.664Z,99797.34
2023-05-24T10:28:12.761Z,99792.19
2023-05-24T10:29:27.813Z,99795.00
2023-05-24T10:30:40.928Z,99796.31
2023-05-24T10:31:44.970Z,99788.25
2023-05-24T10:32:49.032Z,99784.09
2023-05-24T10:33:52.205Z,99793.19
2023-05-24T10:34:55.520Z,99788.41
2023-05-24T10:35:58.603Z,99781.59
2023-05-24T10:37:01.561Z,99779.59
2023-05-24T10:38:09.954Z,99777.03
2023-05-24T10:39:12.668Z,99779.19
2023-05-24T10:40:26.421Z,99782.06
2023-05-24T10:41:29.048Z,99772.28
2023-05-24T10:42:32.369Z,99783.59
2023-05-24T10:43:36.492Z,99769.59
2023-05-24T10:44:39.195Z,99776.69
2023-05-24T10:45:41.976Z,99773.34
2023-05-24T10:47:28.471Z,99766.94
2023-05-24T10:48:38.118Z,99772.41
2023-05-24T10:49:57.640Z,99767.31
2023-05-24T10:51:29.728Z,99774.75
2023-05-24T10:52:36.363Z,99765.97
2023-05-24T10:53:40.845Z,99765.81
2023-05-24T10:55:05.026Z,99769.38
2023-05-24T10:56:09.586Z,99772.81
2023-05-24T10:57:11.929Z,99777.47
2023-05-24T10:58:14.256Z,99769.31
2023-05-24T10:59:37.856Z,99776.31
2023-05-24T11:00:44.536Z,99767.34
2023-05-24T11:01:55.404Z,99775.78
2023-05-24T11:03:02.386Z,99772.69
2023-05-24T11:04:15.740Z,99770.75
2023-05-24T11:05:18.407Z,99772.63
2023-05-24T11:06:50.428Z,99767.97
2023-05-24T11:07:59.623Z,99768.50
2023-05-24T11:09:01.935Z,99764.72
2023-05-24T11:10:10.157Z,99772.53
2023-05-24T11:12:23.531Z,99760.50
2023-05-24T11:13:27.488Z,99760.94
2023-05-24T11:14:31.950Z,99766.25
2023-05-24T11:15:35.192Z,99756.78
2023-05-24T11:16:40.019Z,99761.97
2023-05-24T11:18:15.333Z,99751.50
2023-05-24T11:19:25.038Z,99758.84
2023-05-24T11:20:27.369Z,99751.72
2023-05-24T11:21:29.835Z,99743.31
2023-05-24T11:22:32.150Z,99745.59
2023-05-24T11:23:37.381Z,99745.63
2023-05-24T11:24:41.549Z,99754.13
2023-05-24T11:25:47.059Z,99747.91
2023-05-24T11:26:51.319Z,99750.53
2023-05-24T11:27:53.971Z,99755.97
2023-05-24T11:28:56.304Z,99750.19
2023-05-24T11:29:59.588Z,99762.13
2023-05-24T11:31:08.514Z,99753.22
2023-05-24T11:32:16.419Z,99754.97
2023-05-24T11:33:24.217Z,99758.81
2023-05-24T11:34:27.307Z,99755.94
2023-05-24T11:35:30.104Z,99749.22
2023-05-24T11:36:33.515Z,99747.78
2023-05-24T11:37:46.009Z,99750.03
2023-05-24T11:38:49.842Z,99758.22
2023-05-24T11:39:53.056Z,99753.50
2023-05-24T11:40:58.436Z,99760.72
2023-05-24T11:42:02.475Z,99762.34
2023-05-24T11:43:07.450Z,99752.28
2023-05-24T11:44:11.267Z,99745.84
2023-05-24T11:45:15.583Z,99741.22
2023-05-24T11:46:20.229Z,99737.59
2023-05-24T11:47:23.561Z,99743.00
2023-05-24T11:48:26.150Z,99733.97
2023-05-24T11:49:29.117Z,99742.41
2023-05-24T11:50:42.191Z,99736.34
2023-05-24T11:51:48.262Z,99728.69
2023-05-24T11:52:50.706Z,99737.72
2023-05-24T11:53:54.707Z,99733.50
2023-05-24T11:54:57.341Z,99736.44
2023-05-24T11:55:59.696Z,99728.78
2023-05-24T11:57:02.362Z,99737.16
2023-05-24T11:58:28.596Z,99728.50
2023-05-24T11:59:31.048Z,99728.50
2023-05-24T12:00:34.377Z,99731.66
2023-05-24T12:01:38.153Z,99722.28
2023-05-24T12:02:40.728Z,99722.66
2023-05-24T12:03:43.309Z,99716.47
2023-05-24T12:04:46.928Z,99728.16
2023-05-24T12:05:49.425Z,99717.16
2023-05-24T12:06:51.752Z,99718.75
2023-05-24T12:08:02.362Z,99721.69
2023-05-24T12:09:11.049Z,99725.13
2023-05-24T12:10:13.805Z,99714.63
2023-05-24T12:11:17.148Z,99714.16
2023-05-24T12:12:27.081Z,99718.56
2023-05-24T12:13:36.661Z,99706.22
2023-05-24T12:14:39.855Z,99713.34
2023-05-24T12:15:42.251Z,99719.09
2023-05-24T12:16:46.442Z,99717.22
2023-05-24T12:17:52.281Z,99721.66
2023-05-24T12:19:04.194Z,99713.97
2023-05-24T12:20:12.978Z,99717.81
2023-05-24T12:21:15.660Z,99716.56
2023-05-24T12:22:17.942Z,99709.16
2023-05-24T12:23:22.950Z,99711.38
2023-05-24T12:24:26.398Z,99711.25
2023-05-24T12:25:28.694Z,99702.75
2023-05-24T12:26:30.890Z,99703.63
2023-05-24T12:27:34.636Z,99705.16
2023-05-24T12:28:39.189Z,99700.09
2023-05-24T12:29:42.505Z,99702.59
2023-05-24T12:30:45.207Z,99705.16
2023-05-24T12:31:48.894Z,99701.03
2023-05-24T12:32:51.708Z,99701.56
2023-05-24T12:33:54.584Z,99713.78
2023-05-24T12:34:57.046Z,99703.81
2023-05-24T12:35:59.527Z,99702.06
2023-05-24T12:37:02.654Z,99705.19
2023-05-24T12:38:09.194Z,99693.53
2023-05-24T12:39:24.650Z,99687.50